Overview Statistics Trail Chart Weather Telemetry Raw packets
 

This is the latest recevied weather packets stored in our database for station/object IU1OPQ-3. If no packets are shown the sender has not sent any weather packets the latest 10 day(s).

<< 1 2 3 4 5 6 7 >>
Time Temp. Humidity Pressure Rain* Wind** Luminosity Snow
1788477600 25° C 58% 1020.2 hPa 0 mm - - -
1788476401 25.56° C 58% 1020.3 hPa 0 mm - - -
1788475200 25.56° C 59% 1020.3 hPa 0 mm - - -
1788474001 25° C 59% 1020.3 hPa 0 mm - - -
1788472801 25.56° C 55% 1020.3 hPa 0 mm - - -
1788471601 26.11° C 55% 1020.1 hPa 0 mm - - -
1788470401 25.56° C 56% 1020.1 hPa 0 mm - - -
1788469200 25.56° C 58% 1020.2 hPa 0 mm - - -
1788468001 25° C 59% 1020.2 hPa 0 mm - - -
1788466801 25° C 63% 1020.2 hPa 0 mm - - -
1788465618 25° C 62% 1020.2 hPa 0 mm - - -
1788464401 25° C 64% 1020 hPa 0 mm - - -
1788463202 25° C 63% 1019.8 hPa 0 mm - - -
1788462001 25.56° C 62% 1019.8 hPa 0 mm - - -
1788460802 25.56° C 60% 1019.5 hPa 0 mm - - -
1788459601 26.11° C 58% 1019.5 hPa 0 mm - - -
1788458401 27.22° C 53% 1019.5 hPa 0 mm - - -
1788456000 28.89° C 43% 1019.1 hPa 0 mm - - -
1788454801 30° C 42% 1019.3 hPa 0 mm - - -
1788453601 30.56° C 40% 1019.1 hPa 0 mm - - -
1788452400 30.56° C 40% 1019.2 hPa 0 mm - - -
1788451200 31.11° C 39% 1019 hPa 0 mm - - -
1788450001 31.11° C 40% 1019.2 hPa 0 mm - - -
1788448800 31.11° C 38% 1019.3 hPa 0 mm - - -
1788447600 30° C 39% 1019.3 hPa 0 mm - - -

* Rain latest hour (hover to see other rain measurements)
** Current wind speed in m/s (hover to see current wind gust speed)